FNG8 EFTU-EFTU

Flight info

Callsign FNG8
Flight time 1h 47m
Altitude 3500
Route JUTKI HAAPASAARI JUTKI
Aircraft D228/L-SDFGHILORVY/S

Departure

Time 2026-04-22 16:47
Airport Turku Airport (EFTU)

Arrival

Time 2026-04-22 18:35
Airport Turku Airport (EFTU)
Time Latitude Longitude Altitude Speed Heading
2026-04-22 16:36 60.51156 22.26579 159 ft 0 kts 176°
2026-04-22 16:44 60.51128 22.26545 161 ft 10 kts 248°
2026-04-22 16:45 60.51174 22.26496 156 ft 9 kts 24°
2026-04-22 16:45 60.51242 22.26605 150 ft 11 kts 34°
2026-04-22 16:45 60.51312 22.26738 144 ft 12 kts 75°
2026-04-22 16:45 60.51316 22.26903 147 ft 13 kts 84°
2026-04-22 16:46 60.51348 22.27044 146 ft 11 kts 22°
2026-04-22 16:46 60.51416 22.27036 146 ft 10 kts 344°
2026-04-22 16:46 60.51442 22.26943 143 ft 3 kts 264°
2026-04-22 16:46 60.51420 22.26445 142 ft 66 kts 264°
2026-04-22 16:47 60.51363 22.25192 209 ft 106 kts 266°
2026-04-22 16:47 60.51273 22.23525 413 ft 128 kts 265°
2026-04-22 16:47 60.51079 22.22333 540 ft 144 kts 242°
2026-04-22 16:47 60.49978 22.20488 845 ft 159 kts 219°
2026-04-22 16:48 60.48978 22.19464 1123 ft 169 kts 206°
2026-04-22 16:48 60.47858 22.18652 1392 ft 174 kts 208°
2026-04-22 16:48 60.46693 22.17824 1676 ft 179 kts 206°
2026-04-22 16:48 60.45503 22.16983 1936 ft 183 kts 207°
2026-04-22 16:49 60.44288 22.16129 2199 ft 186 kts 206°
2026-04-22 16:49 60.43047 22.15271 2464 ft 191 kts 206°
2026-04-22 16:49 60.41738 22.14350 2488 ft 204 kts 206°
2026-04-22 16:49 60.40381 22.13405 2489 ft 209 kts 206°
2026-04-22 16:50 60.38992 22.12433 2444 ft 212 kts 207°
2026-04-22 16:50 60.37764 22.10939 2373 ft 202 kts 232°
2026-04-22 16:50 60.36812 22.08953 2386 ft 194 kts 239°
2026-04-22 16:50 60.35902 22.06989 2378 ft 194 kts 239°
2026-04-22 16:51 60.34978 22.05003 2385 ft 194 kts 238°
2026-04-22 16:51 60.34053 22.03015 2380 ft 194 kts 239°
2026-04-22 16:51 60.33126 22.01025 2395 ft 194 kts 238°
2026-04-22 16:51 60.32198 21.99034 2387 ft 195 kts 238°
2026-04-22 16:52 60.31268 21.97043 2386 ft 192 kts 238°
2026-04-22 16:52 60.30343 21.95066 2389 ft 194 kts 238°
2026-04-22 16:52 60.29420 21.93088 2401 ft 194 kts 238°
2026-04-22 16:52 60.28493 21.91104 2392 ft 193 kts 238°
2026-04-22 16:53 60.27583 21.89164 2394 ft 193 kts 238°
2026-04-22 16:53 60.26658 21.87189 2395 ft 194 kts 238°
2026-04-22 16:53 60.25728 21.85206 2396 ft 195 kts 238°
2026-04-22 16:53 60.24794 21.83219 2396 ft 195 kts 238°
2026-04-22 16:54 60.23859 21.81228 2403 ft 196 kts 238°
2026-04-22 16:54 60.22921 21.79234 2404 ft 196 kts 238°
2026-04-22 16:54 60.21982 21.77242 2405 ft 196 kts 238°
2026-04-22 16:54 60.21044 21.75253 2405 ft 196 kts 238°
2026-04-22 16:55 60.20104 21.73256 2411 ft 197 kts 238°
2026-04-22 16:55 60.19160 21.71259 2400 ft 197 kts 238°
2026-04-22 16:55 60.18219 21.69270 2399 ft 196 kts 238°
2026-04-22 16:55 60.17279 21.67280 2402 ft 197 kts 238°
2026-04-22 16:56 60.16336 21.65288 2398 ft 196 kts 238°
2026-04-22 16:56 60.15396 21.63303 2401 ft 196 kts 238°
2026-04-22 16:56 60.14456 21.61324 2395 ft 196 kts 238°
2026-04-22 16:56 60.13516 21.59343 2405 ft 196 kts 238°
2026-04-22 16:57 60.12586 21.57384 2407 ft 196 kts 238°
2026-04-22 16:57 60.11646 21.55403 2404 ft 196 kts 238°
2026-04-22 16:57 60.10701 21.53424 2404 ft 196 kts 238°
2026-04-22 16:57 60.09759 21.51444 2404 ft 196 kts 237°
2026-04-22 16:58 60.09135 21.50136 2400 ft 196 kts 238°
2026-04-22 16:58 60.07880 21.47507 2400 ft 195 kts 238°
2026-04-22 16:58 60.06946 21.45550 2406 ft 194 kts 238°
2026-04-22 16:58 60.06014 21.43601 2405 ft 194 kts 238°
2026-04-22 16:59 60.05081 21.41650 2404 ft 194 kts 238°
2026-04-22 16:59 60.04147 21.39696 2406 ft 195 kts 238°
2026-04-22 16:59 60.03524 21.38396 2406 ft 195 kts 237°
2026-04-22 16:59 60.02264 21.35771 2406 ft 196 kts 238°
2026-04-22 17:00 60.01638 21.34467 2406 ft 196 kts 238°
2026-04-22 17:00 59.99746 21.30534 2407 ft 195 kts 238°
2026-04-22 17:00 59.98502 21.27947 2407 ft 195 kts 238°
2026-04-22 17:01 59.97869 21.26632 2408 ft 195 kts 238°
2026-04-22 17:01 59.96930 21.24682 2416 ft 195 kts 238°
2026-04-22 17:01 59.95988 21.22733 2450 ft 194 kts 237°
2026-04-22 17:01 59.95057 21.20808 2525 ft 192 kts 237°
2026-04-22 17:02 59.94134 21.18890 2597 ft 191 kts 238°
2026-04-22 17:02 59.93208 21.16992 2675 ft 191 kts 237°
2026-04-22 17:02 59.92287 21.15122 2752 ft 191 kts 237°
2026-04-22 17:02 59.91355 21.13227 2830 ft 191 kts 237°
2026-04-22 17:03 59.90426 21.11337 2904 ft 191 kts 236°
2026-04-22 17:03 59.89503 21.09435 2982 ft 191 kts 236°
2026-04-22 17:03 59.88583 21.07518 3062 ft 192 kts 237°
2026-04-22 17:03 59.87663 21.05596 3144 ft 192 kts 236°
2026-04-22 17:04 59.86746 21.03668 3221 ft 192 kts 237°
2026-04-22 17:04 59.85824 21.01733 3298 ft 192 kts 237°
2026-04-22 17:04 59.84898 20.99817 3375 ft 192 kts 237°
2026-04-22 17:04 59.83972 20.97906 3462 ft 192 kts 237°
2026-04-22 17:05 59.83046 20.95993 3544 ft 192 kts 237°
2026-04-22 17:05 59.82119 20.94070 3575 ft 194 kts 237°
2026-04-22 17:05 59.81181 20.92111 3575 ft 196 kts 237°
2026-04-22 17:05 59.80239 20.90137 3576 ft 197 kts 237°
2026-04-22 17:06 59.79414 20.88032 3567 ft 184 kts 259°
2026-04-22 17:06 59.79394 20.85729 3574 ft 159 kts 301°
2026-04-22 17:06 59.80044 20.84095 3584 ft 149 kts 320°
2026-04-22 17:06 59.80929 20.83295 3584 ft 144 kts 355°
2026-04-22 17:07 59.81936 20.83455 3586 ft 147 kts
2026-04-22 17:07 59.82891 20.84285 3585 ft 156 kts 28°
2026-04-22 17:07 59.83494 20.86192 3576 ft 180 kts 68°
2026-04-22 17:07 59.83343 20.88785 3581 ft 195 kts 95°
2026-04-22 17:08 59.83208 20.91380 3582 ft 184 kts 76°
2026-04-22 17:08 59.83285 20.93930 3589 ft 185 kts 75°
2026-04-22 17:08 59.83333 20.96508 3590 ft 188 kts 78°
2026-04-22 17:08 59.83351 20.99103 3570 ft 189 kts 78°
2026-04-22 17:09 59.83352 21.01714 3571 ft 189 kts 79°
2026-04-22 17:09 59.83354 21.04317 3572 ft 188 kts 78°
2026-04-22 17:09 59.83360 21.06924 3573 ft 188 kts 79°
2026-04-22 17:09 59.83367 21.09525 3574 ft 187 kts 79°
2026-04-22 17:10 59.83373 21.12117 3572 ft 188 kts 79°
2026-04-22 17:10 59.83377 21.14684 3571 ft 188 kts 79°
2026-04-22 17:10 59.83381 21.17275 3570 ft 187 kts 79°
2026-04-22 17:10 59.83385 21.19859 3572 ft 187 kts 79°
2026-04-22 17:11 59.83390 21.22482 3568 ft 187 kts 78°
2026-04-22 17:11 59.83392 21.25068 3569 ft 187 kts 78°
2026-04-22 17:11 59.83395 21.27628 3560 ft 188 kts 79°
2026-04-22 17:11 59.83397 21.30234 3561 ft 188 kts 79°
2026-04-22 17:12 59.83398 21.32835 3562 ft 188 kts 79°
2026-04-22 17:12 59.83398 21.35433 3555 ft 187 kts 79°
2026-04-22 17:12 59.83398 21.38018 3555 ft 187 kts 79°
2026-04-22 17:12 59.83399 21.40600 3554 ft 187 kts 79°
2026-04-22 17:13 59.83399 21.43189 3554 ft 187 kts 79°
2026-04-22 17:13 59.83397 21.45779 3554 ft 188 kts 79°
2026-04-22 17:13 59.83396 21.48378 3555 ft 188 kts 79°
2026-04-22 17:13 59.83393 21.50985 3558 ft 188 kts 79°
2026-04-22 17:14 59.83390 21.53552 3579 ft 188 kts 78°
2026-04-22 17:14 59.83388 21.56179 3549 ft 189 kts 79°
2026-04-22 17:14 59.83384 21.58801 3550 ft 190 kts 79°
2026-04-22 17:14 59.83379 21.61416 3548 ft 189 kts 78°
2026-04-22 17:15 59.83376 21.63144 3542 ft 189 kts 78°
2026-04-22 17:15 59.83369 21.66648 3542 ft 189 kts 79°
2026-04-22 17:15 59.83363 21.69267 3542 ft 190 kts 79°
2026-04-22 17:15 59.83332 21.71898 3541 ft 192 kts 84°
2026-04-22 17:16 59.83256 21.74529 3545 ft 190 kts 80°
2026-04-22 17:16 59.83065 21.77122 3533 ft 202 kts 102°
2026-04-22 17:16 59.82371 21.79597 3536 ft 209 kts 119°
2026-04-22 17:16 59.81452 21.81864 3526 ft 211 kts 123°
2026-04-22 17:17 59.80645 21.84225 3516 ft 200 kts 99°
2026-04-22 17:17 59.80643 21.86760 3523 ft 174 kts 57°
2026-04-22 17:17 59.81388 21.88361 3523 ft 153 kts 15°
2026-04-22 17:17 59.82390 21.88279 3532 ft 148 kts 334°
2026-04-22 17:18 59.83148 21.86859 3538 ft 152 kts 317°
2026-04-22 17:18 59.83742 21.85079 3536 ft 157 kts 308°
2026-04-22 17:18 59.84259 21.83149 3540 ft 159 kts 304°
2026-04-22 17:18 59.84728 21.81142 3550 ft 161 kts 301°
2026-04-22 17:19 59.85007 21.76528 3551 ft 173 kts 281°
2026-04-22 17:19 59.85022 21.71765 3551 ft 173 kts 281°
2026-04-22 17:20 59.85034 21.66983 3549 ft 172 kts 281°
2026-04-22 17:20 59.85044 21.62216 3548 ft 172 kts 281°
2026-04-22 17:21 59.85048 21.59835 3551 ft 172 kts 281°
2026-04-22 17:21 59.85055 21.55069 3551 ft 173 kts 281°
2026-04-22 17:22 59.85061 21.50244 3545 ft 176 kts 281°
2026-04-22 17:22 59.85063 21.47808 3546 ft 176 kts 281°
2026-04-22 17:22 59.85064 21.42943 3548 ft 175 kts 281°
2026-04-22 17:23 59.85065 21.40523 3547 ft 175 kts 281°
2026-04-22 17:23 59.85066 21.35683 3546 ft 175 kts 281°
2026-04-22 17:23 59.85065 21.33265 3546 ft 175 kts 281°
2026-04-22 17:24 59.85064 21.30839 3542 ft 175 kts 281°
2026-04-22 17:24 59.85062 21.28440 3542 ft 176 kts 281°
2026-04-22 17:24 59.85061 21.26004 3557 ft 176 kts 281°
2026-04-22 17:24 59.85057 21.23569 3558 ft 176 kts 281°
2026-04-22 17:25 59.85054 21.21139 3560 ft 175 kts 281°
2026-04-22 17:25 59.85051 21.18746 3559 ft 176 kts 281°
2026-04-22 17:25 59.85048 21.16321 3560 ft 175 kts 281°
2026-04-22 17:25 59.85043 21.13897 3558 ft 175 kts 281°
2026-04-22 17:26 59.85039 21.11469 3558 ft 176 kts 281°
2026-04-22 17:26 59.85034 21.09028 3560 ft 176 kts 281°
2026-04-22 17:26 59.85028 21.06580 3560 ft 177 kts 280°
2026-04-22 17:26 59.85022 21.04166 3561 ft 176 kts 280°
2026-04-22 17:27 59.85015 21.01725 3561 ft 177 kts 281°
2026-04-22 17:27 59.85008 20.99281 3561 ft 177 kts 281°
2026-04-22 17:27 59.84992 20.96846 3571 ft 176 kts 278°
2026-04-22 17:27 59.84646 20.94412 3571 ft 187 kts 260°
2026-04-22 17:28 59.84283 20.91992 3563 ft 174 kts 280°
2026-04-22 17:28 59.84681 20.89946 3564 ft 154 kts 321°
2026-04-22 17:28 59.85635 20.89272 3572 ft 151 kts
2026-04-22 17:28 59.86558 20.90351 3578 ft 168 kts 43°
2026-04-22 17:29 59.86882 20.92731 3582 ft 195 kts 84°
2026-04-22 17:29 59.86531 20.95414 3583 ft 201 kts 96°
2026-04-22 17:29 59.86431 20.98064 3580 ft 188 kts 76°
2026-04-22 17:29 59.86547 21.00636 3575 ft 186 kts 73°
2026-04-22 17:30 59.86661 21.03215 3574 ft 189 kts 75°
2026-04-22 17:30 59.86701 21.05811 3574 ft 190 kts 78°
2026-04-22 17:30 59.86703 21.08447 3574 ft 191 kts 79°
2026-04-22 17:30 59.86703 21.11080 3573 ft 190 kts 79°
2026-04-22 17:31 59.86708 21.13714 3574 ft 190 kts 78°
2026-04-22 17:31 59.86714 21.16350 3569 ft 190 kts 78°
2026-04-22 17:31 59.86718 21.18992 3568 ft 191 kts 79°
2026-04-22 17:31 59.86722 21.21637 3568 ft 191 kts 79°
2026-04-22 17:32 59.86725 21.24285 3571 ft 191 kts 79°
2026-04-22 17:32 59.86727 21.26940 3571 ft 191 kts 79°
2026-04-22 17:32 59.86729 21.29574 3559 ft 190 kts 79°
2026-04-22 17:32 59.86731 21.32173 3559 ft 190 kts 79°
2026-04-22 17:33 59.86732 21.33954 3562 ft 191 kts 79°
2026-04-22 17:33 59.86733 21.37449 3564 ft 191 kts 79°
2026-04-22 17:33 59.86733 21.40097 3562 ft 192 kts 79°
2026-04-22 17:33 59.86732 21.42746 3564 ft 191 kts 79°
2026-04-22 17:34 59.86730 21.45391 3562 ft 191 kts 79°
2026-04-22 17:34 59.86729 21.48034 3560 ft 190 kts 79°
2026-04-22 17:34 59.86727 21.50668 3560 ft 190 kts 79°
2026-04-22 17:34 59.86724 21.53304 3559 ft 190 kts 79°
2026-04-22 17:35 59.86720 21.55937 3558 ft 190 kts 79°
2026-04-22 17:35 59.86718 21.58592 3552 ft 193 kts 79°
2026-04-22 17:35 59.86714 21.61266 3553 ft 193 kts 79°
2026-04-22 17:35 59.86708 21.63898 3553 ft 193 kts 79°
2026-04-22 17:36 59.86702 21.66567 3549 ft 193 kts 79°
2026-04-22 17:36 59.86696 21.69240 3550 ft 193 kts 79°
2026-04-22 17:36 59.86690 21.71907 3550 ft 193 kts 79°
2026-04-22 17:36 59.86683 21.74581 3550 ft 193 kts 79°
2026-04-22 17:37 59.86675 21.77250 3552 ft 193 kts 79°
2026-04-22 17:37 59.86651 21.79899 3538 ft 198 kts 90°
2026-04-22 17:37 59.86082 21.82498 3535 ft 209 kts 112°
2026-04-22 17:37 59.85330 21.84986 3524 ft 207 kts 110°
2026-04-22 17:38 59.85087 21.87604 3522 ft 184 kts 69°
2026-04-22 17:38 59.85675 21.89594 3525 ft 159 kts 27°
2026-04-22 17:38 59.86677 21.90030 3523 ft 148 kts 347°
2026-04-22 17:38 59.87477 21.88751 3529 ft 159 kts 306°
2026-04-22 17:39 59.87595 21.86450 3537 ft 177 kts 274°
2026-04-22 17:39 59.87677 21.84178 3535 ft 160 kts 300°
2026-04-22 17:39 59.88309 21.79839 3542 ft 169 kts 288°
2026-04-22 17:40 59.88342 21.77456 3550 ft 173 kts 281°
2026-04-22 17:40 59.88347 21.75053 3554 ft 173 kts 281°
2026-04-22 17:40 59.88353 21.72653 3552 ft 174 kts 281°
2026-04-22 17:40 59.88359 21.70242 3551 ft 174 kts 281°
2026-04-22 17:41 59.88365 21.67830 3549 ft 174 kts 281°
2026-04-22 17:41 59.88370 21.65418 3550 ft 174 kts 281°
2026-04-22 17:41 59.88376 21.63013 3551 ft 174 kts 281°
2026-04-22 17:41 59.88380 21.60603 3551 ft 174 kts 281°
2026-04-22 17:42 59.88383 21.58200 3555 ft 173 kts 281°
2026-04-22 17:42 59.88387 21.55820 3544 ft 174 kts 281°
2026-04-22 17:42 59.88390 21.54186 3544 ft 175 kts 281°
2026-04-22 17:42 59.88393 21.50969 3544 ft 175 kts 281°
2026-04-22 17:43 59.88395 21.48532 3544 ft 176 kts 281°
2026-04-22 17:43 59.88397 21.46089 3546 ft 177 kts 281°
2026-04-22 17:43 59.88398 21.43632 3546 ft 177 kts 281°
2026-04-22 17:43 59.88399 21.41173 3547 ft 177 kts 281°
2026-04-22 17:44 59.88399 21.38716 3550 ft 177 kts 281°
2026-04-22 17:44 59.88399 21.36258 3551 ft 177 kts 281°
2026-04-22 17:44 59.88398 21.33843 3551 ft 176 kts 281°
2026-04-22 17:44 59.88397 21.31400 3550 ft 176 kts 281°
2026-04-22 17:45 59.88396 21.28957 3556 ft 176 kts 281°
2026-04-22 17:45 59.88394 21.26512 3555 ft 176 kts 281°
2026-04-22 17:45 59.88391 21.24065 3554 ft 177 kts 281°
2026-04-22 17:45 59.88389 21.21620 3555 ft 177 kts 281°
2026-04-22 17:46 59.88386 21.19166 3559 ft 177 kts 281°
2026-04-22 17:46 59.88381 21.16716 3560 ft 177 kts 281°
2026-04-22 17:46 59.88379 21.15090 3560 ft 177 kts 281°
2026-04-22 17:46 59.88373 21.11848 3559 ft 177 kts 281°
2026-04-22 17:47 59.88369 21.10195 3558 ft 177 kts 281°
2026-04-22 17:47 59.88364 21.07744 3558 ft 176 kts 281°
2026-04-22 17:47 59.88358 21.05299 3563 ft 176 kts 281°
2026-04-22 17:47 59.88352 21.02887 3562 ft 177 kts 281°
2026-04-22 17:48 59.88345 21.00430 3571 ft 178 kts 281°
2026-04-22 17:48 59.88339 20.97967 3572 ft 178 kts 281°
2026-04-22 17:48 59.88310 20.95507 3567 ft 181 kts 273°
2026-04-22 17:48 59.87788 20.93093 3573 ft 195 kts 251°
2026-04-22 17:49 59.87226 20.90705 3561 ft 180 kts 272°
2026-04-22 17:49 59.87467 20.88492 3568 ft 156 kts 314°
2026-04-22 17:49 59.88352 20.87496 3571 ft 149 kts 354°
2026-04-22 17:49 59.89309 20.88233 3586 ft 162 kts 35°
2026-04-22 17:50 59.89789 20.90398 3584 ft 185 kts 71°
2026-04-22 17:50 59.89822 20.93005 3585 ft 187 kts 77°
2026-04-22 17:50 59.89939 20.95572 3584 ft 186 kts 73°
2026-04-22 17:50 59.89997 20.98158 3580 ft 189 kts 79°
2026-04-22 17:51 59.90006 21.00777 3578 ft 189 kts 78°
2026-04-22 17:51 59.90018 21.03385 3571 ft 188 kts 78°
2026-04-22 17:51 59.90026 21.06002 3571 ft 189 kts 78°
2026-04-22 17:51 59.90032 21.08620 3572 ft 189 kts 78°
2026-04-22 17:52 59.90038 21.11240 3572 ft 189 kts 78°
2026-04-22 17:52 59.90043 21.13871 3572 ft 190 kts 78°
2026-04-22 17:52 59.90047 21.16506 3571 ft 190 kts 79°
2026-04-22 17:52 59.90051 21.19143 3572 ft 190 kts 79°
2026-04-22 17:53 59.90055 21.21769 3571 ft 189 kts 79°
2026-04-22 17:53 59.90058 21.24356 3570 ft 189 kts 78°
2026-04-22 17:53 59.90061 21.26986 3570 ft 189 kts 78°
2026-04-22 17:53 59.90063 21.29609 3570 ft 190 kts 78°
2026-04-22 17:54 59.90065 21.32243 3560 ft 190 kts 78°
2026-04-22 17:54 59.90066 21.34887 3562 ft 190 kts 79°
2026-04-22 17:54 59.90066 21.37517 3561 ft 190 kts 79°
2026-04-22 17:54 59.90065 21.40139 3561 ft 189 kts 79°
2026-04-22 17:55 59.90065 21.42730 3564 ft 189 kts 79°
2026-04-22 17:55 59.90064 21.45353 3562 ft 189 kts 79°
2026-04-22 17:55 59.90062 21.47973 3561 ft 189 kts 78°
2026-04-22 17:55 59.90060 21.50589 3560 ft 189 kts 78°
2026-04-22 17:56 59.90057 21.53217 3561 ft 190 kts 79°
2026-04-22 17:56 59.90054 21.55846 3561 ft 190 kts 79°
2026-04-22 17:56 59.90051 21.58478 3562 ft 190 kts 79°
2026-04-22 17:56 59.90048 21.61127 3551 ft 192 kts 79°
2026-04-22 17:57 59.90042 21.63751 3553 ft 192 kts 79°
2026-04-22 17:57 59.90036 21.66413 3554 ft 193 kts 79°
2026-04-22 17:57 59.90031 21.69091 3544 ft 194 kts 79°
2026-04-22 17:57 59.90024 21.71775 3545 ft 194 kts 79°
2026-04-22 17:58 59.90017 21.74460 3543 ft 194 kts 79°
2026-04-22 17:58 59.90009 21.77141 3544 ft 193 kts 79°
2026-04-22 17:58 59.89988 21.79824 3539 ft 196 kts 85°
2026-04-22 17:58 59.89571 21.82508 3534 ft 206 kts 103°
2026-04-22 17:59 59.89122 21.85169 3521 ft 195 kts 84°
2026-04-22 17:59 59.89439 21.87564 3521 ft 170 kts 44°
2026-04-22 17:59 59.90367 21.88685 3522 ft 153 kts
2026-04-22 17:59 59.91339 21.88046 3532 ft 155 kts 323°
2026-04-22 18:00 59.91717 21.86795 3536 ft 168 kts 296°
2026-04-22 18:00 59.91718 21.83534 3545 ft 179 kts 279°
2026-04-22 18:00 59.91684 21.81050 3547 ft 179 kts 279°
2026-04-22 18:00 59.91661 21.78586 3546 ft 177 kts 282°
2026-04-22 18:01 59.91677 21.76135 3540 ft 177 kts 282°
2026-04-22 18:01 59.91685 21.73678 3544 ft 177 kts 281°
2026-04-22 18:01 59.91691 21.71246 3538 ft 178 kts 281°
2026-04-22 18:01 59.91697 21.68775 3540 ft 178 kts 281°
2026-04-22 18:02 59.91702 21.66312 3541 ft 178 kts 281°
2026-04-22 18:02 59.91707 21.63847 3542 ft 178 kts 281°
2026-04-22 18:02 59.91712 21.61377 3542 ft 178 kts 281°
2026-04-22 18:02 59.91716 21.58899 3544 ft 179 kts 281°
2026-04-22 18:03 59.91721 21.56409 3548 ft 180 kts 281°
2026-04-22 18:03 59.91723 21.53900 3548 ft 180 kts 281°
2026-04-22 18:03 59.91725 21.51405 3548 ft 180 kts 281°
2026-04-22 18:03 59.91728 21.48946 3548 ft 180 kts 281°
2026-04-22 18:04 59.91730 21.46455 3548 ft 179 kts 281°
2026-04-22 18:04 59.91731 21.43965 3548 ft 179 kts 281°
2026-04-22 18:04 59.91732 21.41474 3547 ft 180 kts 281°
2026-04-22 18:04 59.91733 21.38978 3548 ft 180 kts 281°
2026-04-22 18:05 59.91733 21.36469 3549 ft 181 kts 281°
2026-04-22 18:05 59.91732 21.33957 3549 ft 181 kts 281°
2026-04-22 18:05 59.91730 21.31441 3555 ft 181 kts 281°
2026-04-22 18:05 59.91729 21.28927 3556 ft 181 kts 281°
2026-04-22 18:06 59.91727 21.26426 3562 ft 180 kts 281°
2026-04-22 18:06 59.91724 21.23931 3560 ft 180 kts 281°
2026-04-22 18:06 59.91721 21.21433 3560 ft 180 kts 281°
2026-04-22 18:06 59.91718 21.18933 3559 ft 180 kts 281°
2026-04-22 18:07 59.91715 21.16429 3556 ft 180 kts 281°
2026-04-22 18:07 59.91710 21.13956 3557 ft 181 kts 281°
2026-04-22 18:07 59.91705 21.11443 3558 ft 181 kts 281°
2026-04-22 18:07 59.91700 21.08926 3559 ft 181 kts 281°
2026-04-22 18:08 59.91694 21.06421 3560 ft 181 kts 281°
2026-04-22 18:08 59.91688 21.03912 3568 ft 181 kts 281°
2026-04-22 18:08 59.91680 21.01406 3567 ft 181 kts 281°
2026-04-22 18:08 59.91669 20.98900 3567 ft 180 kts 281°
2026-04-22 18:09 59.91620 20.96398 3556 ft 186 kts 270°
2026-04-22 18:09 59.91083 20.93947 3564 ft 197 kts 252°
2026-04-22 18:09 59.90613 20.91475 3567 ft 182 kts 277°
2026-04-22 18:09 59.90966 20.89275 3542 ft 161 kts 318°
2026-04-22 18:10 59.91908 20.88398 3568 ft 152 kts 359°
2026-04-22 18:10 59.92876 20.89275 3574 ft 165 kts 39°
2026-04-22 18:10 59.93302 20.91525 3586 ft 187 kts 75°
2026-04-22 18:10 59.93323 20.94154 3585 ft 190 kts 78°
2026-04-22 18:11 59.93331 20.96798 3584 ft 190 kts 79°
2026-04-22 18:11 59.93349 20.99440 3582 ft 191 kts 78°
2026-04-22 18:11 59.93352 21.02053 3582 ft 191 kts 79°
2026-04-22 18:11 59.93355 21.04704 3582 ft 192 kts 79°
2026-04-22 18:12 59.93362 21.07368 3574 ft 192 kts 79°
2026-04-22 18:12 59.93368 21.10027 3575 ft 191 kts 79°
2026-04-22 18:12 59.93371 21.11778 3574 ft 191 kts 79°
2026-04-22 18:12 59.93378 21.15314 3573 ft 191 kts 78°
2026-04-22 18:13 59.93383 21.17958 3573 ft 191 kts 78°
2026-04-22 18:13 59.93387 21.20600 3573 ft 191 kts 78°
2026-04-22 18:13 59.93390 21.23253 3573 ft 191 kts 79°
2026-04-22 18:13 59.93393 21.25911 3574 ft 192 kts 78°
2026-04-22 18:14 59.93395 21.28573 3575 ft 192 kts 79°
2026-04-22 18:14 59.93397 21.31222 3575 ft 191 kts 79°
2026-04-22 18:14 59.93398 21.33871 3575 ft 191 kts 79°
2026-04-22 18:14 59.93399 21.36513 3563 ft 191 kts 79°
2026-04-22 18:15 59.93399 21.39153 3561 ft 190 kts 79°
2026-04-22 18:15 59.93398 21.41795 3562 ft 191 kts 79°
2026-04-22 18:15 59.93398 21.44444 3561 ft 191 kts 79°
2026-04-22 18:15 59.93397 21.47093 3561 ft 191 kts 79°
2026-04-22 18:16 59.93394 21.49744 3559 ft 191 kts 79°
2026-04-22 18:16 59.93392 21.52396 3560 ft 191 kts 79°
2026-04-22 18:16 59.93388 21.55043 3560 ft 191 kts 79°
2026-04-22 18:16 59.93385 21.57693 3560 ft 191 kts 79°
2026-04-22 18:17 59.93381 21.60339 3563 ft 191 kts 79°
2026-04-22 18:17 59.93377 21.62994 3561 ft 191 kts 78°
2026-04-22 18:17 59.93373 21.65659 3544 ft 192 kts 79°
2026-04-22 18:17 59.93364 21.68323 3544 ft 192 kts 79°
2026-04-22 18:18 59.93358 21.70943 3585 ft 190 kts 79°
2026-04-22 18:18 59.93353 21.73592 3546 ft 193 kts 79°
2026-04-22 18:18 59.93346 21.76258 3549 ft 192 kts 79°
2026-04-22 18:18 59.93345 21.78924 3547 ft 193 kts 79°
2026-04-22 18:19 59.93346 21.81588 3536 ft 189 kts 77°
2026-04-22 18:19 59.93783 21.83816 3530 ft 164 kts 37°
2026-04-22 18:19 59.94732 21.84838 3540 ft 153 kts 12°
2026-04-22 18:19 59.95753 21.85455 3545 ft 154 kts 12°
2026-04-22 18:20 59.96782 21.86075 3522 ft 156 kts 12°
2026-04-22 18:20 59.97826 21.86713 3451 ft 158 kts 12°
2026-04-22 18:20 59.98881 21.87361 3378 ft 159 kts 12°
2026-04-22 18:20 59.99940 21.88015 3304 ft 159 kts 12°
2026-04-22 18:21 60.00996 21.88667 3230 ft 158 kts 12°
2026-04-22 18:21 60.02050 21.89317 3153 ft 158 kts 12°
2026-04-22 18:21 60.03102 21.89966 3062 ft 159 kts 12°
2026-04-22 18:21 60.04162 21.90620 2933 ft 160 kts 12°
2026-04-22 18:22 60.05213 21.91270 2808 ft 159 kts 12°
2026-04-22 18:22 60.06272 21.91925 2680 ft 159 kts 12°
2026-04-22 18:22 60.07333 21.92581 2551 ft 160 kts 12°
2026-04-22 18:22 60.08394 21.93231 2422 ft 160 kts 12°
2026-04-22 18:23 60.09460 21.93877 2301 ft 160 kts 12°
2026-04-22 18:23 60.10524 21.94530 2162 ft 160 kts 13°
2026-04-22 18:23 60.11592 21.95191 2006 ft 161 kts 13°
2026-04-22 18:24 60.13714 21.96515 1704 ft 161 kts 13°
2026-04-22 18:24 60.14778 21.97176 1641 ft 157 kts 12°
2026-04-22 18:24 60.16826 21.98453 1630 ft 154 kts 12°
2026-04-22 18:25 60.17848 21.99089 1636 ft 154 kts 12°
2026-04-22 18:25 60.18869 21.99727 1637 ft 153 kts 13°
2026-04-22 18:25 60.19883 22.00362 1642 ft 152 kts 12°
2026-04-22 18:26 60.21929 22.01639 1635 ft 155 kts 13°
2026-04-22 18:26 60.22941 22.02276 1636 ft 154 kts 13°
2026-04-22 18:26 60.23961 22.02914 1638 ft 153 kts 13°
2026-04-22 18:26 60.24977 22.03552 1629 ft 153 kts 12°
2026-04-22 18:27 60.25992 22.04188 1631 ft 153 kts 12°
2026-04-22 18:27 60.27012 22.04825 1631 ft 153 kts 12°
2026-04-22 18:27 60.28027 22.05461 1633 ft 152 kts 13°
2026-04-22 18:27 60.29032 22.06102 1605 ft 152 kts 13°
2026-04-22 18:28 60.30053 22.06741 1529 ft 155 kts 12°
2026-04-22 18:28 60.31090 22.07392 1449 ft 157 kts 12°
2026-04-22 18:28 60.32145 22.08057 1370 ft 161 kts 13°
2026-04-22 18:28 60.33220 22.08733 1286 ft 163 kts 13°
2026-04-22 18:29 60.34301 22.09416 1237 ft 162 kts 12°
2026-04-22 18:29 60.35372 22.10087 1249 ft 161 kts 13°
2026-04-22 18:29 60.36447 22.10763 1229 ft 161 kts 13°
2026-04-22 18:29 60.37505 22.11468 1229 ft 160 kts 14°
2026-04-22 18:30 60.38551 22.12202 1241 ft 159 kts 15°
2026-04-22 18:30 60.40310 22.15121 1232 ft 168 kts 38°
2026-04-22 18:30 60.41126 22.16827 1231 ft 169 kts 39°
2026-04-22 18:31 60.41917 22.18530 1229 ft 168 kts 40°
2026-04-22 18:31 60.42719 22.20253 1231 ft 169 kts 40°
2026-04-22 18:31 60.43529 22.21980 1230 ft 169 kts 39°
2026-04-22 18:31 60.44332 22.23709 1211 ft 169 kts 39°
2026-04-22 18:32 60.44887 22.24880 1182 ft 172 kts 39°
2026-04-22 18:32 60.45965 22.27238 1109 ft 172 kts 40°
2026-04-22 18:32 60.46791 22.29005 1058 ft 173 kts 41°
2026-04-22 18:32 60.47625 22.30812 963 ft 178 kts 41°
2026-04-22 18:33 60.48470 22.32637 926 ft 177 kts 41°
2026-04-22 18:33 60.49337 22.34367 902 ft 167 kts 31°
2026-04-22 18:33 60.50336 22.35069 814 ft 147 kts 358°
2026-04-22 18:33 60.51170 22.34519 583 ft 115 kts 320°
2026-04-22 18:34 60.51501 22.33722 573 ft 110 kts 300°
2026-04-22 18:34 60.51659 22.32295 559 ft 111 kts 274°
2026-04-22 18:34 60.51600 22.30730 443 ft 111 kts 269°
2026-04-22 18:34 60.51542 22.29251 297 ft 104 kts 266°
2026-04-22 18:35 60.51477 22.27775 153 ft 99 kts 264°
2026-04-22 18:35 60.51431 22.26736 143 ft 54 kts 265°
2026-04-22 18:35 60.51400 22.26020 148 ft 47 kts 265°
2026-04-22 18:35 60.51376 22.25498 149 ft 23 kts 264°
2026-04-22 18:36 60.51329 22.25297 147 ft 11 kts 214°
2026-04-22 18:36 60.51236 22.25271 147 ft 13 kts 150°
2026-04-22 18:36 60.51201 22.25440 147 ft 15 kts 83°
2026-04-22 18:36 60.51209 22.25646 152 ft 15 kts 85°
2026-04-22 18:37 60.51221 22.25893 152 ft 19 kts 85°
2026-04-22 18:37 60.51235 22.26135 152 ft 13 kts 68°
2026-04-22 18:37 60.51286 22.26356 147 ft 21 kts 69°
2026-04-22 18:37 60.51277 22.26520 146 ft 8 kts 163°
2026-04-22 18:38 60.51236 22.26545 150 ft 5 kts 163°
2026-04-22 18:38 60.51189 22.26572 156 ft 9 kts 168°
2026-04-22 18:38 60.51172 22.26575 157 ft 0 kts 177°